sensor_id;sensor_type;location;lat;lon;timestamp;P1;durP1;ratioP1;P2;durP2;ratioP2
86209;SDS011;76865;50.756;3.366;2024-03-02T00:01:57;1.77;;;0.70;;
86209;SDS011;76865;50.756;3.366;2024-03-02T00:04:24;2.17;;;0.77;;
86209;SDS011;76865;50.756;3.366;2024-03-02T00:06:52;1.07;;;0.70;;
86209;SDS011;76865;50.756;3.366;2024-03-02T00:09:20;1.20;;;0.70;;
86209;SDS011;76865;50.756;3.366;2024-03-02T00:11:48;2.45;;;0.77;;
86209;SDS011;76865;50.756;3.366;2024-03-02T00:14:16;2.17;;;0.80;;
86209;SDS011;76865;50.756;3.366;2024-03-02T00:16:43;1.42;;;0.70;;
86209;SDS011;76865;50.756;3.366;2024-03-02T00:19:10;1.50;;;0.60;;
86209;SDS011;76865;50.756;3.366;2024-03-02T00:21:37;1.13;;;0.80;;
86209;SDS011;76865;50.756;3.366;2024-03-02T00:24:07;2.58;;;0.90;;
86209;SDS011;76865;50.756;3.366;2024-03-02T00:26:40;2.33;;;0.68;;
86209;SDS011;76865;50.756;3.366;2024-03-02T00:29:12;2.10;;;0.80;;
86209;SDS011;76865;50.756;3.366;2024-03-02T00:31:42;1.80;;;0.77;;
86209;SDS011;76865;50.756;3.366;2024-03-02T00:34:09;2.53;;;0.60;;
86209;SDS011;76865;50.756;3.366;2024-03-02T00:36:37;1.65;;;0.70;;
86209;SDS011;76865;50.756;3.366;2024-03-02T00:39:05;1.63;;;0.70;;
86209;SDS011;76865;50.756;3.366;2024-03-02T00:41:33;1.67;;;0.75;;
86209;SDS011;76865;50.756;3.366;2024-03-02T00:44:01;0.97;;;0.60;;
86209;SDS011;76865;50.756;3.366;2024-03-02T00:46:32;2.22;;;0.88;;
86209;SDS011;76865;50.756;3.366;2024-03-02T00:49:00;2.67;;;0.73;;
86209;SDS011;76865;50.756;3.366;2024-03-02T00:51:27;1.38;;;0.70;;
86209;SDS011;76865;50.756;3.366;2024-03-02T00:53:55;1.98;;;0.70;;
86209;SDS011;76865;50.756;3.366;2024-03-02T00:56:22;1.70;;;0.80;;
86209;SDS011;76865;50.756;3.366;2024-03-02T00:58:49;1.52;;;0.88;;
86209;SDS011;76865;50.756;3.366;2024-03-02T01:01:16;1.05;;;0.60;;
86209;SDS011;76865;50.756;3.366;2024-03-02T01:03:44;1.48;;;0.60;;
86209;SDS011;76865;50.756;3.366;2024-03-02T01:06:11;1.52;;;0.80;;
86209;SDS011;76865;50.756;3.366;2024-03-02T01:08:38;2.03;;;0.80;;
86209;SDS011;76865;50.756;3.366;2024-03-02T01:11:05;0.75;;;0.60;;
86209;SDS011;76865;50.756;3.366;2024-03-02T01:13:32;3.03;;;0.90;;
86209;SDS011;76865;50.756;3.366;2024-03-02T01:16:00;0.90;;;0.60;;
86209;SDS011;76865;50.756;3.366;2024-03-02T01:18:27;0.88;;;0.68;;
86209;SDS011;76865;50.756;3.366;2024-03-02T01:20:55;0.97;;;0.50;;
86209;SDS011;76865;50.756;3.366;2024-03-02T01:23:22;1.05;;;0.60;;
86209;SDS011;76865;50.756;3.366;2024-03-02T01:25:49;1.83;;;0.70;;
86209;SDS011;76865;50.756;3.366;2024-03-02T01:28:17;1.25;;;0.70;;
86209;SDS011;76865;50.756;3.366;2024-03-02T01:30:44;1.17;;;0.60;;
86209;SDS011;76865;50.756;3.366;2024-03-02T01:33:11;1.70;;;0.80;;
86209;SDS011;76865;50.756;3.366;2024-03-02T01:35:38;1.33;;;0.60;;
86209;SDS011;76865;50.756;3.366;2024-03-02T01:38:06;1.05;;;0.60;;
86209;SDS011;76865;50.756;3.366;2024-03-02T01:40:33;1.33;;;0.70;;
86209;SDS011;76865;50.756;3.366;2024-03-02T01:43:00;1.58;;;0.63;;
86209;SDS011;76865;50.756;3.366;2024-03-02T01:45:28;1.80;;;0.70;;
86209;SDS011;76865;50.756;3.366;2024-03-02T01:47:55;2.40;;;0.70;;
86209;SDS011;76865;50.756;3.366;2024-03-02T01:50:25;1.75;;;0.75;;
86209;SDS011;76865;50.756;3.366;2024-03-02T01:52:52;1.58;;;0.80;;
86209;SDS011;76865;50.756;3.366;2024-03-02T01:55:20;2.05;;;0.90;;
86209;SDS011;76865;50.756;3.366;2024-03-02T01:57:47;1.30;;;0.60;;
86209;SDS011;76865;50.756;3.366;2024-03-02T02:00:14;1.30;;;0.60;;
86209;SDS011;76865;50.756;3.366;2024-03-02T02:02:42;0.98;;;0.70;;
86209;SDS011;76865;50.756;3.366;2024-03-02T02:05:09;1.15;;;0.60;;
86209;SDS011;76865;50.756;3.366;2024-03-02T02:07:36;1.55;;;0.70;;
86209;SDS011;76865;50.756;3.366;2024-03-02T02:10:03;1.20;;;0.60;;
86209;SDS011;76865;50.756;3.366;2024-03-02T02:12:31;1.65;;;0.82;;
86209;SDS011;76865;50.756;3.366;2024-03-02T02:14:58;1.98;;;0.80;;
86209;SDS011;76865;50.756;3.366;2024-03-02T02:17:25;1.23;;;0.80;;
86209;SDS011;76865;50.756;3.366;2024-03-02T02:19:52;2.10;;;0.90;;
86209;SDS011;76865;50.756;3.366;2024-03-02T02:22:20;1.20;;;0.60;;
86209;SDS011;76865;50.756;3.366;2024-03-02T02:24:47;1.83;;;0.70;;
86209;SDS011;76865;50.756;3.366;2024-03-02T02:27:14;1.13;;;0.77;;
86209;SDS011;76865;50.756;3.366;2024-03-02T02:29:41;0.95;;;0.60;;
86209;SDS011;76865;50.756;3.366;2024-03-02T02:32:08;2.40;;;0.80;;
86209;SDS011;76865;50.756;3.366;2024-03-02T02:34:35;1.33;;;0.70;;
86209;SDS011;76865;50.756;3.366;2024-03-02T02:37:02;2.13;;;0.80;;
86209;SDS011;76865;50.756;3.366;2024-03-02T02:39:30;1.02;;;0.70;;
86209;SDS011;76865;50.756;3.366;2024-03-02T02:41:57;1.48;;;0.63;;
86209;SDS011;76865;50.756;3.366;2024-03-02T02:44:26;0.90;;;0.75;;
86209;SDS011;76865;50.756;3.366;2024-03-02T02:46:53;1.40;;;0.67;;
86209;SDS011;76865;50.756;3.366;2024-03-02T02:49:20;1.70;;;0.73;;
86209;SDS011;76865;50.756;3.366;2024-03-02T02:51:47;1.23;;;0.70;;
86209;SDS011;76865;50.756;3.366;2024-03-02T02:54:14;0.88;;;0.63;;
86209;SDS011;76865;50.756;3.366;2024-03-02T02:56:42;2.03;;;0.88;;
86209;SDS011;76865;50.756;3.366;2024-03-02T02:59:09;2.00;;;0.70;;
86209;SDS011;76865;50.756;3.366;2024-03-02T03:01:36;0.98;;;0.60;;
86209;SDS011;76865;50.756;3.366;2024-03-02T03:04:03;1.80;;;0.80;;
86209;SDS011;76865;50.756;3.366;2024-03-02T03:06:30;1.83;;;0.68;;
86209;SDS011;76865;50.756;3.366;2024-03-02T03:08:57;2.05;;;0.85;;
86209;SDS011;76865;50.756;3.366;2024-03-02T03:11:24;1.33;;;0.60;;
86209;SDS011;76865;50.756;3.366;2024-03-02T03:13:54;1.98;;;0.80;;
86209;SDS011;76865;50.756;3.366;2024-03-02T03:16:21;2.08;;;0.77;;
86209;SDS011;76865;50.756;3.366;2024-03-02T03:18:48;1.17;;;0.60;;
86209;SDS011;76865;50.756;3.366;2024-03-02T03:21:18;1.45;;;0.80;;
86209;SDS011;76865;50.756;3.366;2024-03-02T03:23:44;1.37;;;0.60;;
86209;SDS011;76865;50.756;3.366;2024-03-02T03:26:11;2.25;;;0.80;;
86209;SDS011;76865;50.756;3.366;2024-03-02T03:28:38;1.27;;;0.70;;
86209;SDS011;76865;50.756;3.366;2024-03-02T03:31:07;1.70;;;0.70;;
86209;SDS011;76865;50.756;3.366;2024-03-02T03:33:33;1.38;;;0.70;;
86209;SDS011;76865;50.756;3.366;2024-03-02T03:36:01;2.00;;;0.77;;
86209;SDS011;76865;50.756;3.366;2024-03-02T03:38:28;1.63;;;0.75;;
86209;SDS011;76865;50.756;3.366;2024-03-02T03:40:55;2.42;;;0.80;;
86209;SDS011;76865;50.756;3.366;2024-03-02T03:43:22;1.13;;;0.60;;
86209;SDS011;76865;50.756;3.366;2024-03-02T03:45:49;1.48;;;0.68;;
86209;SDS011;76865;50.756;3.366;2024-03-02T03:48:18;1.30;;;0.77;;
86209;SDS011;76865;50.756;3.366;2024-03-02T03:50:45;1.50;;;0.80;;
86209;SDS011;76865;50.756;3.366;2024-03-02T03:53:12;2.45;;;0.70;;
86209;SDS011;76865;50.756;3.366;2024-03-02T03:55:40;1.90;;;0.70;;
86209;SDS011;76865;50.756;3.366;2024-03-02T03:58:07;2.25;;;0.70;;
86209;SDS011;76865;50.756;3.366;2024-03-02T04:00:33;3.00;;;0.80;;
86209;SDS011;76865;50.756;3.366;2024-03-02T04:03:00;1.27;;;0.60;;
86209;SDS011;76865;50.756;3.366;2024-03-02T04:05:28;1.25;;;0.60;;
86209;SDS011;76865;50.756;3.366;2024-03-02T04:07:55;1.75;;;0.70;;
86209;SDS011;76865;50.756;3.366;2024-03-02T04:10:22;1.20;;;0.80;;
86209;SDS011;76865;50.756;3.366;2024-03-02T04:12:50;2.50;;;1.07;;
86209;SDS011;76865;50.756;3.366;2024-03-02T04:15:17;1.13;;;0.60;;
86209;SDS011;76865;50.756;3.366;2024-03-02T04:17:44;0.98;;;0.70;;
86209;SDS011;76865;50.756;3.366;2024-03-02T04:20:11;2.60;;;0.85;;
86209;SDS011;76865;50.756;3.366;2024-03-02T04:22:39;2.03;;;0.80;;
86209;SDS011;76865;50.756;3.366;2024-03-02T04:25:07;2.27;;;0.90;;
86209;SDS011;76865;50.756;3.366;2024-03-02T04:27:35;2.05;;;0.70;;
86209;SDS011;76865;50.756;3.366;2024-03-02T04:30:02;1.33;;;0.68;;
86209;SDS011;76865;50.756;3.366;2024-03-02T04:32:30;2.92;;;0.73;;
86209;SDS011;76865;50.756;3.366;2024-03-02T04:34:57;1.50;;;0.68;;
86209;SDS011;76865;50.756;3.366;2024-03-02T04:37:24;2.03;;;0.70;;
86209;SDS011;76865;50.756;3.366;2024-03-02T04:39:54;2.95;;;0.90;;
86209;SDS011;76865;50.756;3.366;2024-03-02T04:42:21;1.95;;;0.85;;
86209;SDS011;76865;50.756;3.366;2024-03-02T04:44:48;2.33;;;0.90;;
86209;SDS011;76865;50.756;3.366;2024-03-02T04:47:16;1.20;;;0.70;;
86209;SDS011;76865;50.756;3.366;2024-03-02T04:49:43;2.87;;;0.80;;
86209;SDS011;76865;50.756;3.366;2024-03-02T04:52:10;1.05;;;0.50;;
86209;SDS011;76865;50.756;3.366;2024-03-02T04:54:37;2.00;;;0.75;;
86209;SDS011;76865;50.756;3.366;2024-03-02T04:57:31;1.98;;;0.65;;
86209;SDS011;76865;50.756;3.366;2024-03-02T04:59:58;2.97;;;0.80;;
86209;SDS011;76865;50.756;3.366;2024-03-02T05:02:25;2.50;;;0.80;;
86209;SDS011;76865;50.756;3.366;2024-03-02T05:04:53;1.17;;;0.70;;
86209;SDS011;76865;50.756;3.366;2024-03-02T05:07:20;1.80;;;0.70;;
86209;SDS011;76865;50.756;3.366;2024-03-02T05:09:47;2.10;;;0.80;;
86209;SDS011;76865;50.756;3.366;2024-03-02T05:12:14;2.45;;;1.00;;
86209;SDS011;76865;50.756;3.366;2024-03-02T05:15:08;2.67;;;0.70;;
86209;SDS011;76865;50.756;3.366;2024-03-02T05:17:35;2.72;;;0.77;;
86209;SDS011;76865;50.756;3.366;2024-03-02T05:20:03;1.92;;;0.75;;
86209;SDS011;76865;50.756;3.366;2024-03-02T05:22:30;2.00;;;0.70;;
86209;SDS011;76865;50.756;3.366;2024-03-02T05:24:57;1.63;;;0.65;;
86209;SDS011;76865;50.756;3.366;2024-03-02T05:27:24;2.10;;;0.90;;
86209;SDS011;76865;50.756;3.366;2024-03-02T05:29:52;1.45;;;0.70;;
86209;SDS011;76865;50.756;3.366;2024-03-02T05:32:20;1.88;;;0.80;;
86209;SDS011;76865;50.756;3.366;2024-03-02T05:34:48;2.67;;;0.77;;
86209;SDS011;76865;50.756;3.366;2024-03-02T05:37:16;1.45;;;0.80;;
86209;SDS011;76865;50.756;3.366;2024-03-02T05:39:43;1.57;;;0.80;;
86209;SDS011;76865;50.756;3.366;2024-03-02T05:42:10;2.25;;;0.80;;
86209;SDS011;76865;50.756;3.366;2024-03-02T05:44:37;1.92;;;0.68;;
86209;SDS011;76865;50.756;3.366;2024-03-02T05:47:04;1.85;;;0.75;;
86209;SDS011;76865;50.756;3.366;2024-03-02T05:49:35;2.67;;;1.00;;
86209;SDS011;76865;50.756;3.366;2024-03-02T05:52:02;2.23;;;0.90;;
86209;SDS011;76865;50.756;3.366;2024-03-02T05:54:29;2.25;;;0.80;;
86209;SDS011;76865;50.756;3.366;2024-03-02T05:56:57;2.15;;;0.80;;
86209;SDS011;76865;50.756;3.366;2024-03-02T05:59:42;2.47;;;1.10;;
86209;SDS011;76865;50.756;3.366;2024-03-02T06:02:09;2.55;;;1.02;;
86209;SDS011;76865;50.756;3.366;2024-03-02T06:04:37;2.60;;;0.80;;
86209;SDS011;76865;50.756;3.366;2024-03-02T06:07:04;2.38;;;1.08;;
86209;SDS011;76865;50.756;3.366;2024-03-02T06:09:31;2.67;;;0.80;;
86209;SDS011;76865;50.756;3.366;2024-03-02T06:11:58;1.80;;;0.82;;
86209;SDS011;76865;50.756;3.366;2024-03-02T06:14:25;3.08;;;0.90;;
86209;SDS011;76865;50.756;3.366;2024-03-02T06:16:52;2.17;;;0.73;;
86209;SDS011;76865;50.756;3.366;2024-03-02T06:19:19;3.03;;;1.10;;
86209;SDS011;76865;50.756;3.366;2024-03-02T06:21:47;1.92;;;0.80;;
86209;SDS011;76865;50.756;3.366;2024-03-02T06:24:15;3.28;;;0.90;;
86209;SDS011;76865;50.756;3.366;2024-03-02T06:26:42;3.28;;;0.85;;
86209;SDS011;76865;50.756;3.366;2024-03-02T06:29:09;2.80;;;0.90;;
86209;SDS011;76865;50.756;3.366;2024-03-02T06:31:36;2.75;;;0.90;;
86209;SDS011;76865;50.756;3.366;2024-03-02T06:34:03;2.90;;;1.00;;
86209;SDS011;76865;50.756;3.366;2024-03-02T06:36:30;3.83;;;0.90;;
86209;SDS011;76865;50.756;3.366;2024-03-02T06:38:58;2.58;;;0.90;;
86209;SDS011;76865;50.756;3.366;2024-03-02T06:41:25;2.90;;;0.90;;
86209;SDS011;76865;50.756;3.366;2024-03-02T06:43:53;3.83;;;1.17;;
86209;SDS011;76865;50.756;3.366;2024-03-02T06:46:25;5.20;;;1.20;;
86209;SDS011;76865;50.756;3.366;2024-03-02T06:48:52;2.85;;;0.90;;
86209;SDS011;76865;50.756;3.366;2024-03-02T06:51:18;8.18;;;1.10;;
86209;SDS011;76865;50.756;3.366;2024-03-02T06:53:46;3.07;;;1.07;;
86209;SDS011;76865;50.756;3.366;2024-03-02T06:56:15;3.33;;;1.20;;
86209;SDS011;76865;50.756;3.366;2024-03-02T06:58:41;3.05;;;1.00;;
86209;SDS011;76865;50.756;3.366;2024-03-02T07:01:09;3.50;;;0.88;;
86209;SDS011;76865;50.756;3.366;2024-03-02T07:03:36;3.75;;;1.00;;
86209;SDS011;76865;50.756;3.366;2024-03-02T07:06:04;10.20;;;1.80;;
86209;SDS011;76865;50.756;3.366;2024-03-02T07:08:31;8.10;;;1.30;;
86209;SDS011;76865;50.756;3.366;2024-03-02T07:10:58;3.90;;;1.20;;
86209;SDS011;76865;50.756;3.366;2024-03-02T07:13:27;10.38;;;1.30;;
86209;SDS011;76865;50.756;3.366;2024-03-02T07:15:54;4.68;;;1.10;;
86209;SDS011;76865;50.756;3.366;2024-03-02T07:18:48;3.00;;;1.10;;
86209;SDS011;76865;50.756;3.366;2024-03-02T07:21:18;3.33;;;1.02;;
86209;SDS011;76865;50.756;3.366;2024-03-02T07:23:46;2.55;;;1.00;;
86209;SDS011;76865;50.756;3.366;2024-03-02T07:26:13;6.65;;;1.38;;
86209;SDS011;76865;50.756;3.366;2024-03-02T07:28:43;3.65;;;1.30;;
86209;SDS011;76865;50.756;3.366;2024-03-02T07:31:11;5.23;;;1.20;;
86209;SDS011;76865;50.756;3.366;2024-03-02T07:33:38;3.60;;;1.08;;
86209;SDS011;76865;50.756;3.366;2024-03-02T07:36:05;2.90;;;1.10;;
86209;SDS011;76865;50.756;3.366;2024-03-02T07:38:32;4.78;;;1.30;;
86209;SDS011;76865;50.756;3.366;2024-03-02T07:40:59;3.72;;;1.00;;
86209;SDS011;76865;50.756;3.366;2024-03-02T07:43:26;6.30;;;1.20;;
86209;SDS011;76865;50.756;3.366;2024-03-02T07:45:55;4.15;;;1.20;;
86209;SDS011;76865;50.756;3.366;2024-03-02T07:48:22;3.35;;;1.00;;
86209;SDS011;76865;50.756;3.366;2024-03-02T07:50:49;5.78;;;1.65;;
86209;SDS011;76865;50.756;3.366;2024-03-02T07:53:16;3.17;;;1.20;;
86209;SDS011;76865;50.756;3.366;2024-03-02T07:55:43;3.53;;;1.10;;
86209;SDS011;76865;50.756;3.366;2024-03-02T07:58:10;5.45;;;1.17;;
86209;SDS011;76865;50.756;3.366;2024-03-02T08:00:38;2.78;;;1.08;;
86209;SDS011;76865;50.756;3.366;2024-03-02T08:03:07;4.25;;;1.20;;
86209;SDS011;76865;50.756;3.366;2024-03-02T08:05:36;4.22;;;1.00;;
86209;SDS011;76865;50.756;3.366;2024-03-02T08:08:04;4.63;;;1.20;;
86209;SDS011;76865;50.756;3.366;2024-03-02T08:10:31;5.68;;;1.13;;
86209;SDS011;76865;50.756;3.366;2024-03-02T08:12:59;3.95;;;1.15;;
86209;SDS011;76865;50.756;3.366;2024-03-02T08:15:26;4.07;;;1.00;;
86209;SDS011;76865;50.756;3.366;2024-03-02T08:17:53;2.95;;;1.00;;
86209;SDS011;76865;50.756;3.366;2024-03-02T08:20:21;4.80;;;1.10;;
86209;SDS011;76865;50.756;3.366;2024-03-02T08:22:49;5.07;;;1.10;;
86209;SDS011;76865;50.756;3.366;2024-03-02T08:25:16;10.00;;;1.13;;
86209;SDS011;76865;50.756;3.366;2024-03-02T08:27:43;3.15;;;1.10;;
86209;SDS011;76865;50.756;3.366;2024-03-02T08:30:11;7.68;;;1.38;;
86209;SDS011;76865;50.756;3.366;2024-03-02T08:32:38;5.03;;;1.37;;
86209;SDS011;76865;50.756;3.366;2024-03-02T08:35:06;2.88;;;1.05;;
86209;SDS011;76865;50.756;3.366;2024-03-02T08:37:34;5.53;;;1.25;;
86209;SDS011;76865;50.756;3.366;2024-03-02T08:40:03;7.03;;;1.58;;
86209;SDS011;76865;50.756;3.366;2024-03-02T08:42:32;4.88;;;1.42;;
86209;SDS011;76865;50.756;3.366;2024-03-02T08:44:59;6.33;;;1.40;;
86209;SDS011;76865;50.756;3.366;2024-03-02T08:47:26;6.75;;;1.70;;
86209;SDS011;76865;50.756;3.366;2024-03-02T08:49:54;5.93;;;1.30;;
86209;SDS011;76865;50.756;3.366;2024-03-02T08:52:20;7.20;;;1.48;;
86209;SDS011;76865;50.756;3.366;2024-03-02T08:54:49;4.13;;;1.13;;
86209;SDS011;76865;50.756;3.366;2024-03-02T08:57:15;4.83;;;1.20;;
86209;SDS011;76865;50.756;3.366;2024-03-02T08:59:42;4.88;;;1.30;;
86209;SDS011;76865;50.756;3.366;2024-03-02T09:02:09;6.07;;;1.40;;
86209;SDS011;76865;50.756;3.366;2024-03-02T09:04:36;5.40;;;1.40;;
86209;SDS011;76865;50.756;3.366;2024-03-02T09:07:03;6.38;;;1.42;;
86209;SDS011;76865;50.756;3.366;2024-03-02T09:09:30;6.37;;;1.47;;
86209;SDS011;76865;50.756;3.366;2024-03-02T09:11:59;5.38;;;1.17;;
86209;SDS011;76865;50.756;3.366;2024-03-02T09:14:26;5.78;;;1.50;;
86209;SDS011;76865;50.756;3.366;2024-03-02T09:16:53;5.70;;;1.42;;
86209;SDS011;76865;50.756;3.366;2024-03-02T09:19:20;4.40;;;1.00;;
86209;SDS011;76865;50.756;3.366;2024-03-02T09:21:48;4.07;;;1.20;;
86209;SDS011;76865;50.756;3.366;2024-03-02T09:24:15;4.65;;;1.20;;
86209;SDS011;76865;50.756;3.366;2024-03-02T09:26:42;5.85;;;1.50;;
86209;SDS011;76865;50.756;3.366;2024-03-02T09:29:11;5.03;;;1.30;;
86209;SDS011;76865;50.756;3.366;2024-03-02T09:31:39;4.10;;;1.10;;
86209;SDS011;76865;50.756;3.366;2024-03-02T09:34:06;6.50;;;1.40;;
86209;SDS011;76865;50.756;3.366;2024-03-02T09:36:33;8.25;;;1.20;;
86209;SDS011;76865;50.756;3.366;2024-03-02T09:38:59;7.75;;;1.30;;
86209;SDS011;76865;50.756;3.366;2024-03-02T09:41:27;6.70;;;1.27;;
86209;SDS011;76865;50.756;3.366;2024-03-02T09:43:54;7.13;;;1.48;;
86209;SDS011;76865;50.756;3.366;2024-03-02T09:46:24;4.70;;;1.27;;
86209;SDS011;76865;50.756;3.366;2024-03-02T09:48:51;5.40;;;1.20;;
86209;SDS011;76865;50.756;3.366;2024-03-02T09:51:18;6.82;;;1.30;;
86209;SDS011;76865;50.756;3.366;2024-03-02T09:53:48;5.30;;;1.48;;
86209;SDS011;76865;50.756;3.366;2024-03-02T09:56:15;6.18;;;1.52;;
86209;SDS011;76865;50.756;3.366;2024-03-02T09:58:43;4.43;;;1.20;;
86209;SDS011;76865;50.756;3.366;2024-03-02T10:01:10;7.13;;;1.33;;
86209;SDS011;76865;50.756;3.366;2024-03-02T10:03:39;7.47;;;1.30;;
86209;SDS011;76865;50.756;3.366;2024-03-02T10:08:53;7.88;;;1.10;;
86209;SDS011;76865;50.756;3.366;2024-03-02T10:11:27;4.90;;;1.23;;
86209;SDS011;76865;50.756;3.366;2024-03-02T10:14:03;6.13;;;1.52;;
86209;SDS011;76865;50.756;3.366;2024-03-02T10:16:30;5.43;;;1.40;;
86209;SDS011;76865;50.756;3.366;2024-03-02T10:18:58;7.72;;;1.38;;
86209;SDS011;76865;50.756;3.366;2024-03-02T10:21:41;3.97;;;1.23;;
86209;SDS011;76865;50.756;3.366;2024-03-02T10:24:08;6.13;;;1.63;;
86209;SDS011;76865;50.756;3.366;2024-03-02T10:26:35;5.20;;;1.35;;
86209;SDS011;76865;50.756;3.366;2024-03-02T10:29:05;4.88;;;1.30;;
86209;SDS011;76865;50.756;3.366;2024-03-02T10:31:32;3.67;;;1.30;;
86209;SDS011;76865;50.756;3.366;2024-03-02T10:34:00;5.05;;;1.30;;
86209;SDS011;76865;50.756;3.366;2024-03-02T10:36:29;5.23;;;1.40;;
86209;SDS011;76865;50.756;3.366;2024-03-02T10:38:56;5.53;;;1.20;;
86209;SDS011;76865;50.756;3.366;2024-03-02T10:41:25;5.97;;;1.40;;
86209;SDS011;76865;50.756;3.366;2024-03-02T10:43:53;4.00;;;1.50;;
86209;SDS011;76865;50.756;3.366;2024-03-02T10:46:26;2.55;;;0.93;;
86209;SDS011;76865;50.756;3.366;2024-03-02T10:48:54;6.03;;;1.33;;
86209;SDS011;76865;50.756;3.366;2024-03-02T10:51:22;5.22;;;1.45;;
86209;SDS011;76865;50.756;3.366;2024-03-02T10:53:50;5.63;;;1.58;;
86209;SDS011;76865;50.756;3.366;2024-03-02T10:56:19;5.93;;;1.52;;
86209;SDS011;76865;50.756;3.366;2024-03-02T10:58:50;2.90;;;1.00;;
86209;SDS011;76865;50.756;3.366;2024-03-02T11:01:17;3.67;;;1.03;;
86209;SDS011;76865;50.756;3.366;2024-03-02T11:03:46;3.15;;;1.10;;
86209;SDS011;76865;50.756;3.366;2024-03-02T11:06:13;4.20;;;1.25;;
86209;SDS011;76865;50.756;3.366;2024-03-02T11:08:42;6.40;;;1.50;;
86209;SDS011;76865;50.756;3.366;2024-03-02T11:11:12;4.78;;;1.33;;
86209;SDS011;76865;50.756;3.366;2024-03-02T11:13:42;9.33;;;1.37;;
86209;SDS011;76865;50.756;3.366;2024-03-02T11:16:16;5.18;;;1.20;;
86209;SDS011;76865;50.756;3.366;2024-03-02T11:18:47;5.95;;;1.30;;
86209;SDS011;76865;50.756;3.366;2024-03-02T11:21:15;5.60;;;1.55;;
86209;SDS011;76865;50.756;3.366;2024-03-02T11:23:44;5.43;;;1.30;;
86209;SDS011;76865;50.756;3.366;2024-03-02T11:26:17;3.70;;;1.20;;
86209;SDS011;76865;50.756;3.366;2024-03-02T11:28:44;4.40;;;1.00;;
86209;SDS011;76865;50.756;3.366;2024-03-02T11:31:11;4.70;;;1.30;;
86209;SDS011;76865;50.756;3.366;2024-03-02T11:33:38;4.00;;;1.20;;
86209;SDS011;76865;50.756;3.366;2024-03-02T11:36:06;3.65;;;1.30;;
86209;SDS011;76865;50.756;3.366;2024-03-02T11:38:34;3.47;;;1.00;;
86209;SDS011;76865;50.756;3.366;2024-03-02T11:41:05;4.32;;;1.20;;
86209;SDS011;76865;50.756;3.366;2024-03-02T11:43:36;2.60;;;1.00;;
86209;SDS011;76865;50.756;3.366;2024-03-02T11:46:05;5.30;;;1.30;;
86209;SDS011;76865;50.756;3.366;2024-03-02T11:48:33;5.10;;;1.20;;
86209;SDS011;76865;50.756;3.366;2024-03-02T11:51:01;3.50;;;0.90;;
86209;SDS011;76865;50.756;3.366;2024-03-02T11:53:28;3.20;;;1.00;;
86209;SDS011;76865;50.756;3.366;2024-03-02T11:55:55;6.80;;;1.30;;
86209;SDS011;76865;50.756;3.366;2024-03-02T11:58:24;4.18;;;1.23;;
86209;SDS011;76865;50.756;3.366;2024-03-02T12:00:54;5.70;;;1.33;;
86209;SDS011;76865;50.756;3.366;2024-03-02T12:03:22;4.00;;;1.03;;
86209;SDS011;76865;50.756;3.366;2024-03-02T12:05:50;5.05;;;1.00;;
86209;SDS011;76865;50.756;3.366;2024-03-02T12:08:19;3.50;;;1.00;;
86209;SDS011;76865;50.756;3.366;2024-03-02T12:10:55;3.78;;;1.10;;
86209;SDS011;76865;50.756;3.366;2024-03-02T12:13:24;3.53;;;1.08;;
86209;SDS011;76865;50.756;3.366;2024-03-02T12:15:52;4.37;;;1.40;;
86209;SDS011;76865;50.756;3.366;2024-03-02T12:18:20;5.05;;;1.50;;
86209;SDS011;76865;50.756;3.366;2024-03-02T12:20:48;4.40;;;1.25;;
86209;SDS011;76865;50.756;3.366;2024-03-02T12:23:15;3.95;;;1.17;;
86209;SDS011;76865;50.756;3.366;2024-03-02T12:25:43;5.30;;;1.08;;
86209;SDS011;76865;50.756;3.366;2024-03-02T12:28:10;4.47;;;1.00;;
86209;SDS011;76865;50.756;3.366;2024-03-02T12:30:38;5.78;;;1.17;;
86209;SDS011;76865;50.756;3.366;2024-03-02T12:33:05;3.45;;;1.08;;
86209;SDS011;76865;50.756;3.366;2024-03-02T12:35:33;5.28;;;1.13;;
86209;SDS011;76865;50.756;3.366;2024-03-02T12:38:00;4.47;;;0.93;;
86209;SDS011;76865;50.756;3.366;2024-03-02T12:40:27;2.83;;;1.00;;
86209;SDS011;76865;50.756;3.366;2024-03-02T12:42:54;4.20;;;1.10;;
86209;SDS011;76865;50.756;3.366;2024-03-02T12:45:21;5.28;;;1.10;;
86209;SDS011;76865;50.756;3.366;2024-03-02T12:47:52;2.70;;;1.05;;
86209;SDS011;76865;50.756;3.366;2024-03-02T12:50:19;4.07;;;1.08;;
86209;SDS011;76865;50.756;3.366;2024-03-02T12:52:50;3.10;;;0.90;;
86209;SDS011;76865;50.756;3.366;2024-03-02T12:55:17;4.05;;;1.23;;
86209;SDS011;76865;50.756;3.366;2024-03-02T12:57:44;3.45;;;0.80;;
86209;SDS011;76865;50.756;3.366;2024-03-02T13:00:12;2.72;;;1.00;;
86209;SDS011;76865;50.756;3.366;2024-03-02T13:02:40;4.68;;;1.17;;
86209;SDS011;76865;50.756;3.366;2024-03-02T13:05:08;3.40;;;0.97;;
86209;SDS011;76865;50.756;3.366;2024-03-02T13:07:36;3.28;;;0.90;;
86209;SDS011;76865;50.756;3.366;2024-03-02T13:10:03;5.60;;;1.63;;
86209;SDS011;76865;50.756;3.366;2024-03-02T13:12:31;4.82;;;1.00;;
86209;SDS011;76865;50.756;3.366;2024-03-02T13:14:58;5.13;;;1.20;;
86209;SDS011;76865;50.756;3.366;2024-03-02T13:17:25;6.40;;;1.10;;
86209;SDS011;76865;50.756;3.366;2024-03-02T13:19:54;3.00;;;0.90;;
86209;SDS011;76865;50.756;3.366;2024-03-02T13:22:23;2.78;;;0.75;;
86209;SDS011;76865;50.756;3.366;2024-03-02T13:24:51;3.08;;;1.00;;
86209;SDS011;76865;50.756;3.366;2024-03-02T13:27:19;4.20;;;1.15;;
86209;SDS011;76865;50.756;3.366;2024-03-02T13:29:46;5.43;;;1.50;;
86209;SDS011;76865;50.756;3.366;2024-03-02T13:32:16;3.25;;;1.20;;
86209;SDS011;76865;50.756;3.366;2024-03-02T13:34:46;4.85;;;1.35;;
86209;SDS011;76865;50.756;3.366;2024-03-02T13:37:13;6.63;;;1.55;;
86209;SDS011;76865;50.756;3.366;2024-03-02T13:39:42;6.93;;;1.45;;
86209;SDS011;76865;50.756;3.366;2024-03-02T13:42:09;5.20;;;1.40;;
86209;SDS011;76865;50.756;3.366;2024-03-02T13:44:39;5.35;;;1.20;;
86209;SDS011;76865;50.756;3.366;2024-03-02T13:47:06;7.00;;;1.55;;
86209;SDS011;76865;50.756;3.366;2024-03-02T13:49:33;5.75;;;1.63;;
86209;SDS011;76865;50.756;3.366;2024-03-02T13:52:02;5.22;;;1.45;;
86209;SDS011;76865;50.756;3.366;2024-03-02T13:54:38;3.23;;;1.10;;
86209;SDS011;76865;50.756;3.366;2024-03-02T13:57:07;5.15;;;1.27;;
86209;SDS011;76865;50.756;3.366;2024-03-02T13:59:35;4.85;;;1.27;;
86209;SDS011;76865;50.756;3.366;2024-03-02T14:02:02;5.20;;;1.15;;
86209;SDS011;76865;50.756;3.366;2024-03-02T14:04:30;7.38;;;1.52;;
86209;SDS011;76865;50.756;3.366;2024-03-02T14:06:57;3.83;;;1.20;;
86209;SDS011;76865;50.756;3.366;2024-03-02T14:09:24;5.65;;;1.52;;
86209;SDS011;76865;50.756;3.366;2024-03-02T14:11:51;3.70;;;1.10;;
86209;SDS011;76865;50.756;3.366;2024-03-02T14:14:24;3.83;;;1.10;;
86209;SDS011;76865;50.756;3.366;2024-03-02T14:16:51;7.15;;;1.10;;
86209;SDS011;76865;50.756;3.366;2024-03-02T14:19:18;4.13;;;1.00;;
86209;SDS011;76865;50.756;3.366;2024-03-02T14:21:46;5.78;;;1.10;;
86209;SDS011;76865;50.756;3.366;2024-03-02T14:24:13;6.18;;;1.40;;
86209;SDS011;76865;50.756;3.366;2024-03-02T14:26:40;4.18;;;1.33;;
86209;SDS011;76865;50.756;3.366;2024-03-02T14:29:07;2.95;;;1.38;;
86209;SDS011;76865;50.756;3.366;2024-03-02T14:31:36;5.67;;;1.30;;
86209;SDS011;76865;50.756;3.366;2024-03-02T14:34:03;5.75;;;1.30;;
86209;SDS011;76865;50.756;3.366;2024-03-02T14:36:30;2.05;;;1.00;;
86209;SDS011;76865;50.756;3.366;2024-03-02T14:38:57;4.90;;;1.20;;
86209;SDS011;76865;50.756;3.366;2024-03-02T14:41:24;5.80;;;1.45;;
86209;SDS011;76865;50.756;3.366;2024-03-02T14:43:51;3.23;;;1.00;;
86209;SDS011;76865;50.756;3.366;2024-03-02T14:46:18;3.30;;;1.15;;
86209;SDS011;76865;50.756;3.366;2024-03-02T14:48:46;3.95;;;1.13;;
86209;SDS011;76865;50.756;3.366;2024-03-02T14:51:13;3.80;;;1.10;;
86209;SDS011;76865;50.756;3.366;2024-03-02T14:53:40;4.85;;;1.30;;
86209;SDS011;76865;50.756;3.366;2024-03-02T14:56:07;4.67;;;1.07;;